Time;durP1;ratioP1;P1;durP2;ratioP2;P2;SDS_P1;SDS_P2;PMS_P1;PMS_P2;Temp;Humidity;BMP_temperature;BMP_pressure;BME280_temperature;BME280_humidity;BME280_pressure;Samples;Min_cycle;Max_cycle;Signal;HPM_P1;HPM_P2
2023/06/27 00:10:02;;;;;;;8.13;1.67;;;21.40;53.00;;;;;;20877967;28;20267;-77
2023/06/27 00:20:05;;;;;;;5.20;1.90;;;21.20;53.30;;;;;;20828775;28;20205;-78
2023/06/27 00:30:07;;;;;;;7.50;1.70;;;21.10;53.50;;;;;;20828573;28;20263;-71
2023/06/27 00:40:10;;;;;;;6.17;1.80;;;20.90;53.60;;;;;;20828271;28;20238;-77
2023/06/27 00:50:12;;;;;;;5.97;1.93;;;20.70;53.40;;;;;;20827676;28;20258;-78
2023/06/27 01:00:15;;;;;;;5.50;1.80;;;20.60;53.70;;;;;;20837543;28;20290;-76
2023/06/27 01:10:52;;;;;;;3.00;1.63;;;20.50;54.40;;;;;;20924641;28;20769;-76
2023/06/27 01:20:54;;;;;;;5.17;1.63;;;20.40;54.70;;;;;;20911094;28;20239;-72
2023/06/27 01:30:56;;;;;;;5.93;1.70;;;20.40;54.40;;;;;;20922465;28;20325;-71
2023/06/27 01:40:59;;;;;;;4.63;2.10;;;20.30;55.30;;;;;;20857696;28;20232;-71
2023/06/27 01:51:01;;;;;;;6.03;1.93;;;20.00;55.60;;;;;;20836841;28;20285;-77
2023/06/27 02:01:03;;;;;;;4.23;1.90;;;20.00;56.30;;;;;;20837274;28;20657;-76
2023/06/27 02:11:04;;;;;;;4.93;1.80;;;19.90;56.50;;;;;;20838086;28;20230;-74
2023/06/27 02:21:06;;;;;;;4.63;1.90;;;19.90;56.40;;;;;;20840267;28;20290;-79
2023/06/27 02:31:08;;;;;;;3.27;1.87;;;19.70;56.70;;;;;;20836699;28;20325;-77
2023/06/27 02:41:10;;;;;;;6.07;2.37;;;19.50;56.70;;;;;;20835247;28;20305;-78
2023/06/27 02:51:12;;;;;;;4.63;2.00;;;19.20;57.10;;;;;;20834109;28;20242;-78
2023/06/27 03:01:14;;;;;;;4.10;2.33;;;19.00;57.80;;;;;;20833686;28;20571;-71
2023/06/27 03:11:16;;;;;;;5.73;2.10;;;18.90;57.90;;;;;;20833028;28;20237;-76
2023/06/27 03:21:19;;;;;;;6.90;2.47;;;18.80;58.30;;;;;;20831681;28;20210;-77
2023/06/27 03:31:21;;;;;;;4.67;2.30;;;;;;;;;;20908984;28;20234;-76
2023/06/27 03:41:23;;;;;;;9.33;2.43;;;18.50;59.50;;;;;;20912594;28;20220;-77
2023/06/27 03:51:26;;;;;;;4.57;2.10;;;;;;;;;;20912744;28;20672;-70
2023/06/27 04:01:29;;;;;;;4.93;2.33;;;;;;;;;;20911285;28;20213;-77
2023/06/27 04:11:31;;;;;;;3.40;2.03;;;18.50;60.80;;;;;;20912100;28;20324;-71
2023/06/27 04:21:33;;;;;;;4.20;2.20;;;18.50;61.40;;;;;;20838243;28;20251;-69
2023/06/27 04:31:35;;;;;;;6.83;2.50;;;18.50;61.80;;;;;;20857322;28;20257;-68
2023/06/27 04:41:37;;;;;;;11.63;3.03;;;18.60;62.20;;;;;;20925294;28;20329;-67
2023/06/27 04:51:39;;;;;;;14.00;2.43;;;18.80;62.00;;;;;;20874210;28;20258;-66
2023/06/27 05:01:40;;;;;;;4.10;2.60;;;18.90;62.50;;;;;;20843908;28;20302;-63
2023/06/27 05:11:42;;;;;;;5.07;2.37;;;19.00;62.60;;;;;;20919267;28;20231;-64
2023/06/27 05:21:44;;;;;;;3.70;2.13;;;19.20;61.90;;;;;;20898054;28;20206;-68
2023/06/27 05:31:45;;;;;;;7.47;3.97;;;19.10;61.20;;;;;;20840439;28;20243;-64
2023/06/27 05:41:47;;;;;;;9.33;3.97;;;19.20;61.40;;;;;;20891922;28;20315;-68
2023/06/27 05:51:49;;;;;;;6.73;2.60;;;19.30;61.30;;;;;;20919965;28;20704;-68
2023/06/27 06:01:51;;;;;;;9.23;2.90;;;19.50;61.10;;;;;;20918863;28;20241;-68
2023/06/27 06:11:53;;;;;;;10.03;3.27;;;19.50;62.10;;;;;;20934764;28;20233;-69
2023/06/27 06:21:54;;;;;;;16.70;2.80;;;19.80;61.80;;;;;;20981197;28;20265;-68
2023/06/27 06:31:56;;;;;;;12.97;2.87;;;20.20;61.20;;;;;;20944158;28;20231;-66
2023/06/27 06:41:58;;;;;;;3.40;1.80;;;20.90;59.90;;;;;;20963028;28;20227;-64
2023/06/27 06:52:02;;;;;;;4.40;2.20;;;20.90;58.40;;;;;;20947486;28;20238;-69
2023/06/27 07:02:04;;;;;;;5.10;1.93;;;21.00;57.50;;;;;;20961156;28;20295;-69
2023/06/27 07:12:06;;;;;;;5.17;1.80;;;21.10;56.90;;;;;;20953498;28;20321;-66
2023/06/27 07:22:09;;;;;;;4.27;1.57;;;21.10;56.00;;;;;;20946520;28;20212;-69
2023/06/27 07:32:11;;;;;;;4.60;1.77;;;21.10;55.50;;;;;;20950000;28;20233;-67
2023/06/27 07:42:13;;;;;;;3.80;2.20;;;21.50;55.00;;;;;;20944458;28;20327;-69
2023/06/27 07:52:15;;;;;;;4.00;1.70;;;21.40;54.90;;;;;;20960037;28;20325;-67
2023/06/27 08:02:16;;;;;;;9.10;2.07;;;21.80;54.50;;;;;;20943335;28;20208;-65
2023/06/27 08:12:18;;;;;;;3.13;1.80;;;21.70;54.00;;;;;;20950484;28;20231;-64
2023/06/27 08:22:20;;;;;;;8.97;3.90;;;21.90;53.80;;;;;;20975708;28;20234;-65
2023/06/27 08:32:22;;;;;;;2.07;1.50;;;22.30;53.30;;;;;;20928625;28;20231;-66
2023/06/27 08:42:24;;;;;;;4.23;1.70;;;22.30;51.50;;;;;;20907554;28;20721;-65
2023/06/27 08:52:28;;;;;;;2.10;1.37;;;22.30;50.70;;;;;;20892176;28;20331;-65
2023/06/27 09:02:30;;;;;;;3.47;1.60;;;22.40;50.00;;;;;;20914167;28;20575;-65
2023/06/27 09:12:33;;;;;;;7.57;2.30;;;22.60;50.10;;;;;;20918379;28;20232;-68
2023/06/27 09:22:36;;;;;;;3.50;1.70;;;22.40;50.70;;;;;;20908573;28;20213;-68
2023/06/27 09:32:57;;;;;;;4.33;1.80;;;22.90;50.70;;;;;;20893417;28;20285;-66
2023/06/27 09:43:02;;;;;;;3.50;1.80;;;23.10;49.60;;;;;;20905298;28;20235;-65
2023/06/27 09:53:04;;;;;;;6.30;1.70;;;23.50;49.00;;;;;;20908049;28;20247;-64
2023/06/27 10:03:08;;;;;;;5.43;1.60;;;23.70;48.80;;;;;;20901311;28;20287;-65
2023/06/27 10:13:10;;;;;;;4.47;1.70;;;23.70;48.20;;;;;;20913267;28;20318;-66
2023/06/27 10:23:14;;;;;;;7.67;1.63;;;24.00;48.00;;;;;;20886945;28;20262;-71
2023/06/27 10:33:28;;;;;;;4.17;2.13;;;24.00;46.30;;;;;;20887987;28;20905;-71
2023/06/27 10:43:45;;;;;;;2.93;1.60;;;23.80;46.10;;;;;;20914272;28;20232;-68
2023/06/27 10:54:08;;;;;;;2.50;1.60;;;23.90;46.70;;;;;;20916596;28;20212;-67
2023/06/27 11:04:25;;;;;;;2.97;1.50;;;24.50;46.80;;;;;;20894460;28;20232;-69
2023/06/27 11:14:48;;;;;;;4.67;2.20;;;24.50;46.60;;;;;;20915172;28;20203;-68
2023/06/27 11:24:50;;;;;;;5.17;2.00;;;24.60;46.50;;;;;;20916196;28;20244;-70
2023/06/27 11:34:51;;;;;;;3.80;1.70;;;24.60;46.90;;;;;;20891465;28;20726;-69
2023/06/27 11:44:53;;;;;;;5.70;1.90;;;24.40;46.30;;;;;;20908923;28;20255;-67
2023/06/27 11:54:55;;;;;;;10.00;2.20;;;24.40;46.70;;;;;;20916064;28;20207;-70
2023/06/27 12:04:58;;;;;;;13.63;2.00;;;24.50;46.80;;;;;;20891850;28;20254;-67
2023/06/27 12:15:13;;;;;;;4.63;2.13;;;24.50;46.50;;;;;;20910574;28;20199;-66
2023/06/27 12:25:15;;;;;;;6.60;1.70;;;24.40;45.90;;;;;;20902368;28;20599;-68
2023/06/27 12:35:18;;;;;;;3.70;1.80;;;25.00;45.50;;;;;;20927544;28;20246;-68
2023/06/27 12:45:20;;;;;;;5.27;2.10;;;25.50;43.80;;;;;;20944521;28;20246;-68
2023/06/27 12:55:22;;;;;;;4.67;2.53;;;25.80;43.10;;;;;;20943296;28;20241;-72
2023/06/27 13:05:24;;;;;;;3.30;1.70;;;25.60;42.90;;;;;;20959510;28;20315;-69
2023/06/27 13:15:25;;;;;;;5.87;2.40;;;25.80;42.20;;;;;;20957851;28;20204;-68
2023/06/27 13:25:33;;;;;;;7.30;2.00;;;25.50;42.10;;;;;;20955205;28;20227;-65
2023/06/27 13:35:35;;;;;;;6.00;1.93;;;25.00;41.60;;;;;;20968832;28;20217;-69
2023/06/27 13:45:36;;;;;;;6.03;2.80;;;25.10;41.80;;;;;;20953785;28;20760;-70
2023/06/27 13:55:38;;;;;;;5.87;2.17;;;25.30;41.30;;;;;;20956750;28;20619;-73
2023/06/27 14:05:40;;;;;;;6.87;1.93;;;25.50;41.00;;;;;;20965910;28;20231;-67
2023/06/27 14:15:43;;;;;;;4.23;2.27;;;25.80;40.50;;;;;;20933809;28;20660;-74
2023/06/27 14:25:45;;;;;;;4.53;1.83;;;26.00;40.50;;;;;;20952802;28;20270;-73
2023/06/27 14:35:49;;;;;;;8.80;1.97;;;26.90;39.30;;;;;;20960498;28;20213;-68
2023/06/27 14:45:51;;;;;;;9.73;1.70;;;27.20;37.70;;;;;;20944473;28;20243;-69
2023/06/27 14:55:53;;;;;;;3.20;1.70;;;26.70;38.00;;;;;;20981343;28;20199;-70
2023/06/27 15:05:56;;;;;;;4.03;1.70;;;26.30;38.70;;;;;;20991119;28;20259;-75
2023/06/27 15:15:58;;;;;;;16.57;2.70;;;26.70;39.00;;;;;;20912554;28;20211;-68
2023/06/27 15:26:00;;;;;;;3.83;1.67;;;27.20;39.60;;;;;;20907359;28;20315;-70
2023/06/27 15:36:02;;;;;;;4.13;1.70;;;27.90;38.10;;;;;;20830424;28;20204;-66
2023/06/27 15:46:04;;;;;;;4.55;1.90;;;27.60;37.90;;;;;;20830169;28;20244;-67
2023/06/27 15:56:06;;;;;;;4.25;2.00;;;28.00;36.90;;;;;;20838897;28;20200;-72
2023/06/27 16:06:07;;;;;;;4.80;2.08;;;29.40;35.20;;;;;;20912109;28;20236;-70
2023/06/27 16:16:09;;;;;;;6.13;1.65;;;29.80;35.40;;;;;;20875684;28;20204;-65
2023/06/27 16:26:11;;;;;;;4.15;1.80;;;31.70;33.20;;;;;;20971274;28;20234;-62
2023/06/27 16:36:13;;;;;;;6.57;2.00;;;30.80;32.20;;;;;;20856099;28;20301;-61
2023/06/27 16:46:15;;;;;;;5.57;1.80;;;27.50;36.00;;;;;;20843716;28;20327;-67
2023/06/27 16:56:17;;;;;;;3.33;1.87;;;26.60;37.70;;;;;;20924203;28;20261;-68
2023/06/27 17:06:18;;;;;;;5.20;1.87;;;26.40;38.20;;;;;;20862401;28;20259;-62
2023/06/27 17:16:21;;;;;;;4.47;1.73;;;;;;;;;;20859759;28;20199;-64
2023/06/27 17:26:22;;;;;;;2.53;1.73;;;32.90;31.70;;;;;;20932200;28;20235;-64
2023/06/27 17:36:27;;;;;;;3.08;1.70;;;30.60;33.70;;;;;;20897285;28;20204;-65
2023/06/27 17:46:28;;;;;;;2.15;1.50;;;29.30;34.70;;;;;;20935617;28;20279;-72
2023/06/27 17:56:30;;;;;;;3.13;1.70;;;26.60;37.90;;;;;;20935740;28;20219;-72
2023/06/27 18:06:32;;;;;;;3.07;1.80;;;25.30;39.80;;;;;;20946112;28;20228;-80
2023/06/27 18:16:33;;;;;;;13.13;2.00;;;24.50;41.10;;;;;;20919805;28;20200;-70
2023/06/27 18:26:35;;;;;;;4.70;1.77;;;24.10;42.60;;;;;;20993822;28;20582;-74
2023/06/27 18:36:37;;;;;;;3.10;1.80;;;23.90;43.20;;;;;;20973887;28;20204;-73
2023/06/27 18:46:39;;;;;;;4.23;1.73;;;23.70;43.80;;;;;;20921845;28;20243;-74
2023/06/27 18:56:41;;;;;;;6.93;2.00;;;23.60;44.20;;;;;;20864845;28;20292;-72
2023/06/27 19:06:47;;;;;;;5.50;2.00;;;23.50;44.60;;;;;;20833772;28;20324;-70
2023/06/27 19:16:49;;;;;;;3.43;2.00;;;23.40;44.90;;;;;;20905984;28;20215;-72
2023/06/27 19:26:52;;;;;;;6.40;2.00;;;23.30;45.40;;;;;;20866435;28;20696;-66
2023/06/27 19:36:53;;;;;;;4.83;2.07;;;23.20;45.90;;;;;;20831532;28;20295;-69
2023/06/27 19:46:55;;;;;;;7.20;1.70;;;23.20;46.50;;;;;;20881406;28;20239;-74
2023/06/27 19:56:58;;;;;;;5.63;2.90;;;23.10;47.00;;;;;;20994998;28;20203;-72
2023/06/27 20:07:00;;;;;;;5.13;2.50;;;22.90;48.20;;;;;;20941930;28;20726;-77
2023/06/27 20:17:02;;;;;;;3.80;2.20;;;22.70;49.30;;;;;;20947942;28;20268;-65
2023/06/27 20:27:06;;;;;;;4.77;2.00;;;22.70;50.30;;;;;;20947471;28;20300;-69
2023/06/27 20:37:08;;;;;;;4.87;2.07;;;22.50;50.10;;;;;;20914606;28;20206;-67
2023/06/27 20:47:10;;;;;;;5.13;2.67;;;22.30;50.30;;;;;;20923284;28;20239;-63
2023/06/27 20:57:12;;;;;;;4.93;2.37;;;22.30;50.20;;;;;;20898667;28;20200;-62
2023/06/27 21:07:13;;;;;;;5.63;2.47;;;22.20;49.90;;;;;;20870086;28;20235;-71
2023/06/27 21:17:16;;;;;;;5.70;2.03;;;22.20;50.60;;;;;;20885000;28;20292;-69
2023/06/27 21:27:17;;;;;;;6.00;1.90;;;22.20;50.90;;;;;;20923877;28;20726;-69
2023/06/27 21:37:19;;;;;;;5.23;2.00;;;22.10;50.80;;;;;;20897968;28;20208;-65
2023/06/27 21:47:21;;;;;;;6.90;2.90;;;22.00;50.70;;;;;;20916408;28;20290;-68
2023/06/27 21:57:23;;;;;;;7.87;2.80;;;22.00;50.90;;;;;;20916791;28;20204;-65
2023/06/27 22:07:25;;;;;;;3.13;2.07;;;21.90;51.10;;;;;;20898996;28;20717;-65
2023/06/27 22:17:27;;;;;;;6.97;3.07;;;21.80;51.40;;;;;;20901132;28;20705;-66
2023/06/27 22:27:29;;;;;;;4.73;2.10;;;21.70;51.70;;;;;;20916940;28;20231;-65
2023/06/27 22:37:31;;;;;;;5.87;2.10;;;21.70;51.70;;;;;;20891020;28;20642;-65
2023/06/27 22:47:34;;;;;;;5.17;1.97;;;21.70;51.80;;;;;;20912545;28;20243;-69
2023/06/27 22:57:36;;;;;;;4.33;1.83;;;21.60;52.10;;;;;;20856634;28;20212;-67
2023/06/27 23:07:38;;;;;;;4.00;2.00;;;21.50;52.40;;;;;;20886782;28;20696;-66
2023/06/27 23:17:40;;;;;;;4.73;2.27;;;21.50;52.50;;;;;;20933473;28;20731;-67
2023/06/27 23:27:42;;;;;;;4.47;2.40;;;21.40;52.60;;;;;;20955293;28;20728;-67
2023/06/27 23:37:44;;;;;;;7.83;2.20;;;21.20;52.90;;;;;;20960340;28;20208;-67
2023/06/27 23:47:45;;;;;;;5.80;2.00;;;21.10;53.60;;;;;;20975452;28;20273;-67
2023/06/27 23:57:47;;;;;;;6.47;3.03;;;21.00;54.00;;;;;;20988572;28;20734;-68
